Time;durP1;ratioP1;P1;durP2;ratioP2;P2;SDS_P1;SDS_P2;PMS_P1;PMS_P2;Temp;Humidity;BMP_temperature;BMP_pressure;BME280_temperature;BME280_humidity;BME280_pressure;Samples;Min_cycle;Max_cycle;Signal;HPM_P1;HPM_P2
2023/03/24 00:02:02;;;;;;;5.05;3.17;;;;;;;20.03;70.35;95679.13;5046651;28;20085;-58
2023/03/24 00:04:30;;;;;;;7.97;3.60;;;;;;;20.11;69.38;95676.94;5045182;28;20091;-54
2023/03/24 00:07:02;;;;;;;5.00;3.10;;;;;;;20.13;67.97;95668.69;5049770;28;20088;-55
2023/03/24 00:09:31;;;;;;;6.20;3.50;;;;;;;20.17;66.33;95661.88;5044448;28;20084;-56
2023/03/24 00:11:59;;;;;;;4.45;3.10;;;;;;;20.08;66.28;95663.19;5043610;28;20445;-53
2023/03/24 00:14:29;;;;;;;4.93;3.20;;;;;;;20.05;65.69;95653.75;5051396;28;20080;-53
2023/03/24 00:16:58;;;;;;;5.37;2.80;;;;;;;20.03;65.67;95652.34;5046958;28;20081;-54
2023/03/24 00:19:27;;;;;;;4.45;2.90;;;;;;;20.03;65.76;95647.00;5045291;28;20719;-54
2023/03/24 00:21:55;;;;;;;4.72;3.15;;;;;;;20.04;65.62;95636.06;5046670;28;20080;-54
2023/03/24 00:24:26;;;;;;;5.78;3.08;;;;;;;20.07;65.33;95630.25;5047902;28;20049;-50
2023/03/24 00:26:56;;;;;;;5.20;3.30;;;;;;;20.02;64.37;95626.63;5043474;28;20075;-55
2023/03/24 00:29:25;;;;;;;7.15;2.83;;;;;;;20.04;63.93;95617.31;5044357;28;20064;-52
2023/03/24 00:31:54;;;;;;;5.60;3.10;;;;;;;19.97;63.70;95610.44;5043634;28;20451;-53
2023/03/24 00:34:22;;;;;;;7.00;3.30;;;;;;;19.85;64.37;95608.47;5051600;28;20089;-52
2023/03/24 00:36:51;;;;;;;3.63;2.85;;;;;;;19.95;62.65;95597.25;5043523;28;20068;-55
2023/03/24 00:39:20;;;;;;;8.18;3.13;;;;;;;19.97;62.25;95592.50;5043779;28;20088;-52
2023/03/24 00:41:50;;;;;;;5.32;3.22;;;;;;;19.84;62.42;95598.81;5045763;28;20471;-58
2023/03/24 00:44:19;;;;;;;4.93;3.15;;;;;;;19.88;62.16;95596.53;5046669;28;20087;-49
2023/03/24 00:46:54;;;;;;;6.15;3.58;;;;;;;19.83;62.07;95591.03;5042878;28;20519;-54
2023/03/24 00:49:40;;;;;;;6.63;3.50;;;;;;;19.83;62.51;95594.53;5046843;28;20061;-57
2023/03/24 00:52:10;;;;;;;5.50;3.47;;;;;;;19.87;61.95;95594.91;5047047;28;20079;-51
2023/03/24 00:54:39;;;;;;;7.07;3.85;;;;;;;19.86;61.89;95595.94;5042884;28;20088;-53
2023/03/24 00:57:11;;;;;;;6.07;3.63;;;;;;;19.82;62.41;95605.44;5041451;28;20073;-53
2023/03/24 00:59:47;;;;;;;5.80;3.20;;;;;;;19.75;62.87;95602.00;5047548;28;20466;-56
2023/03/24 01:02:18;;;;;;;9.13;3.70;;;;;;;19.74;62.42;95600.38;5047895;28;20076;-51
2023/03/24 01:04:46;;;;;;;5.70;3.70;;;;;;;19.69;63.17;95601.06;5044571;28;20072;-54
2023/03/24 01:07:16;;;;;;;6.53;3.55;;;;;;;19.62;63.38;95602.97;5047839;28;20092;-54
2023/03/24 01:09:50;;;;;;;7.60;3.83;;;;;;;19.64;64.67;95606.25;5046628;28;20064;-55
2023/03/24 01:12:20;;;;;;;5.78;3.83;;;;;;;19.67;63.68;95609.28;5044237;28;20086;-52
2023/03/24 01:14:49;;;;;;;5.68;3.78;;;;;;;19.70;63.06;95605.38;5047674;28;20076;-59
2023/03/24 01:17:18;;;;;;;6.22;3.67;;;;;;;19.72;62.97;95610.47;5045310;28;20138;-51
2023/03/24 01:19:47;;;;;;;7.25;3.38;;;;;;;19.67;63.63;95605.81;5048612;28;20080;-54
2023/03/24 01:22:16;;;;;;;9.18;3.65;;;;;;;19.63;64.40;95608.13;5048229;28;20471;-54
2023/03/24 01:24:45;;;;;;;5.82;3.67;;;;;;;19.57;63.93;95613.50;5045539;28;20071;-51
2023/03/24 01:27:13;;;;;;;7.40;3.50;;;;;;;19.55;64.44;95607.56;5045150;28;20080;-56
2023/03/24 01:29:43;;;;;;;6.47;3.70;;;;;;;19.58;64.91;95620.47;5047647;28;22078;-51
2023/03/24 01:32:11;;;;;;;6.53;3.70;;;;;;;19.42;66.78;95620.03;5045477;28;20080;-54
2023/03/24 01:34:40;;;;;;;6.68;3.85;;;;;;;19.46;66.28;95620.41;5043647;28;20111;-54
2023/03/24 01:37:08;;;;;;;8.88;4.00;;;;;;;19.49;65.56;95603.91;5044785;28;20088;-53
2023/03/24 01:39:37;;;;;;;6.15;3.55;;;;;;;19.52;64.88;95600.00;5042142;28;20513;-58
2023/03/24 01:42:05;;;;;;;8.45;3.63;;;;;;;19.58;63.82;95591.06;5045751;28;20085;-51
2023/03/24 01:44:35;;;;;;;5.22;3.78;;;;;;;19.62;62.61;95585.06;5045926;28;20553;-54
2023/03/24 01:47:07;;;;;;;5.18;3.47;;;;;;;19.64;62.46;95579.50;5042834;28;20551;-53
2023/03/24 01:49:38;;;;;;;6.65;3.78;;;;;;;19.73;61.72;95578.19;5043196;28;20557;-56
2023/03/24 01:52:10;;;;;;;6.25;3.70;;;;;;;19.79;60.89;95577.28;5041140;28;20080;-51
2023/03/24 01:54:47;;;;;;;5.80;3.58;;;;;;;19.82;60.20;95568.81;5045206;28;20073;-54
2023/03/24 01:57:21;;;;;;;8.00;4.00;;;;;;;19.78;60.45;95569.47;5043221;28;20628;-52
2023/03/24 01:59:54;;;;;;;6.85;3.90;;;;;;;19.74;60.34;95568.28;5045001;28;20076;-54
2023/03/24 02:02:24;;;;;;;5.75;3.72;;;;;;;19.73;60.53;95553.28;5047015;28;20080;-57
2023/03/24 02:04:54;;;;;;;5.43;4.05;;;;;;;19.75;60.91;95570.75;5044781;28;20073;-49
2023/03/24 02:07:32;;;;;;;7.22;4.13;;;;;;;19.71;61.49;95566.88;5043701;28;20092;-58
2023/03/24 02:10:01;;;;;;;5.63;3.72;;;;;;;19.82;61.16;95565.31;5044508;28;20081;-48
2023/03/24 02:12:29;;;;;;;5.72;3.85;;;;;;;19.85;60.85;95552.28;5048054;28;20077;-56
2023/03/24 02:14:58;;;;;;;6.05;3.60;;;;;;;19.85;60.58;95572.88;5045964;28;20107;-50
2023/03/24 02:17:48;;;;;;;6.47;4.00;;;;;;;19.89;61.07;95577.59;5044441;28;20088;-51
2023/03/24 02:20:31;;;;;;;5.95;3.63;;;;;;;19.80;64.30;95603.00;5044563;28;23318;-52
2023/03/24 02:23:26;;;;;;;6.13;3.78;;;;;;;19.87;64.33;95592.22;5042620;28;20085;-51
2023/03/24 02:26:26;;;;;;;4.78;3.40;;;;;;;19.60;71.37;95595.16;5042265;28;20084;-55
2023/03/24 02:29:02;;;;;;;5.47;3.50;;;;;;;18.47;100.00;95600.59;5044091;28;20091;-51
2023/03/24 02:31:53;;;;;;;6.45;3.75;;;;;;;19.08;100.00;95599.16;5045097;28;20723;-52
2023/03/24 02:34:51;;;;;;;5.10;3.70;;;;;;;19.29;100.00;95593.41;5047735;28;20076;-49
2023/03/24 02:38:02;;;;;;;8.68;4.28;;;;;;;19.34;100.00;95584.72;5043635;28;20080;-55
2023/03/24 02:40:38;;;;;;;6.50;3.92;;;;;;;19.39;100.00;95588.38;5036452;28;20526;-56
2023/03/24 02:43:18;;;;;;;8.13;3.67;;;;;;;19.35;100.00;95595.22;5045105;28;20087;-56
2023/03/24 02:45:56;;;;;;;6.07;3.92;;;;;;;19.49;100.00;95584.38;5046559;28;20534;-52
2023/03/24 02:48:32;;;;;;;5.85;3.70;;;;;;;19.58;100.00;95575.84;5044509;28;20091;-51
2023/03/24 02:51:07;;;;;;;8.43;4.22;;;;;;;19.62;98.18;95573.56;5044070;28;20073;-52
2023/03/24 02:53:42;;;;;;;6.82;4.00;;;;;;;19.53;81.89;95569.53;5045897;28;20478;-52
2023/03/24 02:56:15;;;;;;;5.03;3.88;;;;;;;19.53;80.71;95567.66;5044151;28;20091;-55
2023/03/24 02:58:48;;;;;;;6.38;4.00;;;;;;;19.65;78.78;95579.31;5040154;28;21723;-57
2023/03/24 03:01:30;;;;;;;6.72;3.67;;;;;;;19.79;78.27;95571.13;5041554;28;21684;-51
2023/03/24 03:04:02;;;;;;;7.00;3.72;;;;;;;19.83;75.43;95570.44;5039882;28;20092;-55
2023/03/24 03:06:33;;;;;;;5.65;3.40;;;;;;;19.92;74.99;95558.41;5043927;28;20084;-56
2023/03/24 03:09:06;;;;;;;6.72;3.95;;;;;;;19.94;74.85;95563.50;5043799;28;20557;-57
2023/03/24 03:11:37;;;;;;;5.32;3.47;;;;;;;19.86;76.10;95564.66;5045934;28;20077;-51
2023/03/24 03:14:08;;;;;;;6.97;4.10;;;;;;;19.86;76.13;95561.97;5045951;28;20088;-50
2023/03/24 03:16:39;;;;;;;6.57;3.97;;;;;;;19.84;74.99;95555.19;5047562;28;20087;-56
2023/03/24 03:19:12;;;;;;;5.05;3.53;;;;;;;19.84;76.41;95549.84;5044111;28;20087;-53
2023/03/24 03:21:42;;;;;;;5.30;3.92;;;;;;;19.82;76.47;95555.44;5043491;28;20073;-57
2023/03/24 03:24:14;;;;;;;5.68;3.90;;;;;;;19.81;76.99;95548.44;5041585;28;20553;-54
2023/03/24 03:26:46;;;;;;;8.13;4.32;;;;;;;19.76;76.99;95539.47;5043396;28;20176;-53
2023/03/24 03:29:16;;;;;;;8.38;4.13;;;;;;;19.73;76.12;95545.25;5043361;28;20087;-55
2023/03/24 03:31:49;;;;;;;6.93;4.03;;;;;;;19.76;76.29;95534.13;5042907;28;20088;-50
2023/03/24 03:34:22;;;;;;;7.18;4.10;;;;;;;19.81;76.07;95534.25;5041161;28;20089;-55
2023/03/24 03:36:54;;;;;;;5.63;3.78;;;;;;;19.75;76.57;95527.97;5042589;28;20080;-52
2023/03/24 03:39:28;;;;;;;5.88;3.45;;;;;;;19.36;82.16;95518.50;5040640;28;20096;-56
2023/03/24 03:41:58;;;;;;;9.50;3.72;;;;;;;19.35;87.40;95519.53;5044283;28;20142;-55
2023/03/24 03:44:26;;;;;;;7.97;4.15;;;;;;;18.95;89.26;95509.25;5039467;28;20089;-54
2023/03/24 03:46:56;;;;;;;5.70;3.70;;;;;;;18.83;93.60;95500.34;5041432;28;20472;-49
2023/03/24 03:49:24;;;;;;;10.25;3.70;;;;;;;18.81;98.43;95500.53;5050429;28;20072;-48
2023/03/24 03:51:54;;;;;;;7.05;4.00;;;;;;;19.05;93.15;95492.72;5047596;28;20081;-55
2023/03/24 03:54:24;;;;;;;7.28;3.78;;;;;;;19.10;92.40;95492.88;5048035;28;20092;-52
2023/03/24 03:56:53;;;;;;;6.20;4.18;;;;;;;19.06;92.90;95479.13;5046950;28;20490;-54
2023/03/24 03:59:28;;;;;;;6.68;4.03;;;;;;;18.96;94.94;95466.28;5048003;28;20695;-50
2023/03/24 04:01:57;;;;;;;5.55;3.78;;;;;;;18.98;92.50;95466.88;5040897;28;20088;-52
2023/03/24 04:04:52;;;;;;;6.80;3.60;;;;;;;19.15;89.23;95464.44;5045919;28;20088;-53
2023/03/24 04:07:37;;;;;;;5.43;3.78;;;;;;;19.10;88.95;95477.66;5044832;28;20076;-55
2023/03/24 04:10:14;;;;;;;6.85;3.88;;;;;;;19.15;88.09;95475.13;5050554;28;20076;-50
2023/03/24 04:12:56;;;;;;;8.48;3.80;;;;;;;19.15;86.51;95474.31;5050274;28;20079;-53
2023/03/24 04:15:34;;;;;;;6.88;4.10;;;;;;;19.17;85.22;95461.56;5049137;28;20546;-50
2023/03/24 04:18:22;;;;;;;8.40;3.70;;;;;;;19.16;83.15;95460.72;5048843;28;20172;-52
2023/03/24 04:20:57;;;;;;;5.70;3.58;;;;;;;19.10;83.80;95455.47;5050409;28;20511;-51
2023/03/24 04:23:30;;;;;;;6.85;3.90;;;;;;;19.08;83.41;95465.56;5046915;28;20083;-50
2023/03/24 04:26:05;;;;;;;7.30;3.88;;;;;;;19.06;83.14;95463.09;5049831;28;20081;-51
2023/03/24 04:28:39;;;;;;;6.15;3.72;;;;;;;19.06;83.16;95451.59;5051722;28;20087;-53
2023/03/24 04:31:13;;;;;;;6.95;3.83;;;;;;;19.09;82.48;95459.16;5050028;28;20107;-51
2023/03/24 04:33:47;;;;;;;9.32;3.75;;;;;;;19.08;81.48;95457.53;5050431;28;20625;-54
2023/03/24 04:36:21;;;;;;;6.57;3.40;;;;;;;19.10;81.62;95455.47;5049565;28;20088;-55
2023/03/24 04:38:52;;;;;;;4.93;3.50;;;;;;;19.09;81.31;95451.97;5045488;28;20081;-54
2023/03/24 04:41:21;;;;;;;5.07;3.63;;;;;;;19.11;80.35;95449.06;5049351;28;20167;-52
2023/03/24 04:43:50;;;;;;;7.32;3.80;;;;;;;19.15;80.26;95447.59;5049651;28;20099;-58
2023/03/24 04:46:20;;;;;;;7.18;3.88;;;;;;;19.21;79.83;95436.81;5049760;28;20097;-55
2023/03/24 04:48:49;;;;;;;5.25;3.50;;;;;;;19.24;79.68;95434.75;5050601;28;20729;-52
2023/03/24 04:51:18;;;;;;;5.20;3.75;;;;;;;19.30;78.35;95441.84;5049202;28;20088;-54
2023/03/24 04:53:47;;;;;;;10.50;3.73;;;;;;;19.30;78.01;95436.50;5050560;28;20072;-56
2023/03/24 04:56:29;;;;;;;6.43;4.03;;;;;;;19.31;78.13;95433.63;5049044;28;20076;-54
2023/03/24 04:58:57;;;;;;;7.10;3.75;;;;;;;19.38;77.41;95438.91;5049145;28;20103;-50
2023/03/24 05:01:28;;;;;;;7.03;3.90;;;;;;;19.43;77.01;95433.69;5047040;28;20104;-54
2023/03/24 05:03:57;;;;;;;5.22;3.42;;;;;;;19.44;76.61;95449.50;5049781;28;20076;-53
2023/03/24 05:06:26;;;;;;;5.72;3.85;;;;;;;19.46;76.66;95441.25;5048238;28;20081;-47
2023/03/24 05:08:57;;;;;;;5.43;3.53;;;;;;;19.42;77.17;95448.09;5043819;28;20084;-53
2023/03/24 05:11:26;;;;;;;5.88;3.45;;;;;;;19.17;80.39;95458.88;5047900;28;20099;-52
2023/03/24 05:13:55;;;;;;;6.60;3.50;;;;;;;19.36;80.94;95454.34;5049960;28;20083;-54
2023/03/24 05:16:23;;;;;;;6.05;3.42;;;;;;;19.33;81.55;95452.09;5049071;28;20076;-56
2023/03/24 05:18:53;;;;;;;4.47;3.22;;;;;;;19.35;80.68;95480.25;5049799;28;20064;-56
2023/03/24 05:21:21;;;;;;;5.83;3.50;;;;;;;19.36;79.32;95467.69;5049064;28;20076;-49
2023/03/24 05:23:49;;;;;;;6.15;3.42;;;;;;;19.38;80.14;95474.47;5048608;28;20068;-53
2023/03/24 05:26:18;;;;;;;7.80;3.78;;;;;;;19.33;80.41;95482.31;5049171;28;20166;-50
2023/03/24 05:28:46;;;;;;;6.13;3.80;;;;;;;19.38;79.73;95489.69;5047861;28;20068;-56
2023/03/24 05:31:14;;;;;;;5.80;3.47;;;;;;;19.30;81.56;95496.13;5048869;28;20075;-52
2023/03/24 05:33:43;;;;;;;5.80;3.70;;;;;;;19.43;80.91;95487.16;5047030;28;20076;-51
2023/03/24 05:36:13;;;;;;;4.97;3.55;;;;;;;19.55;78.76;95493.41;5044049;28;20072;-50
2023/03/24 05:38:41;;;;;;;5.32;3.42;;;;;;;19.55;80.04;95500.59;5049278;28;20080;-47
2023/03/24 05:41:09;;;;;;;6.78;3.92;;;;;;;19.56;80.55;95497.69;5049169;28;20091;-50
2023/03/24 05:43:38;;;;;;;6.38;4.10;;;;;;;19.50;81.04;95514.63;5042156;28;20068;-55
2023/03/24 05:46:06;;;;;;;5.22;3.63;;;;;;;19.52;80.02;95517.91;5045815;28;20106;-49
2023/03/24 05:48:35;;;;;;;5.80;3.38;;;;;;;19.60;82.00;95522.13;5047986;28;20073;-51
2023/03/24 05:51:03;;;;;;;4.60;3.30;;;;;;;19.28;89.63;95545.53;5048316;28;20481;-53
2023/03/24 05:53:33;;;;;;;6.35;3.55;;;;;;;19.56;84.37;95532.47;5044148;28;20098;-53
2023/03/24 05:56:01;;;;;;;6.03;3.80;;;;;;;19.61;85.36;95518.41;5042888;28;20088;-50
2023/03/24 05:58:33;;;;;;;5.93;4.15;;;;;;;19.70;85.01;95509.06;5048676;28;20091;-52
2023/03/24 06:01:07;;;;;;;5.43;3.70;;;;;;;19.78;87.10;95507.94;5042609;28;20080;-55
2023/03/24 06:03:37;;;;;;;6.88;4.07;;;;;;;19.79;88.12;95504.25;5043283;28;20515;-52
2023/03/24 06:06:08;;;;;;;7.40;4.07;;;;;;;19.88;87.26;95505.53;5048157;28;20060;-50
2023/03/24 06:08:37;;;;;;;;;;;;;;;19.92;86.21;95512.91;5048666;28;20084;-49
2023/03/24 06:11:06;;;;;;;4.85;3.50;;;;;;;20.00;85.47;95516.31;5048131;28;20012;-55
2023/03/24 06:13:35;;;;;;;8.23;3.90;;;;;;;20.06;88.32;95524.25;5044367;28;20057;-49
2023/03/24 06:16:03;;;;;;;5.68;3.97;;;;;;;20.08;88.82;95518.66;5046189;28;20069;-49
2023/03/24 06:18:32;;;;;;;7.25;4.40;;;;;;;20.09;95.13;95506.91;5040713;28;20095;-48
2023/03/24 06:21:00;;;;;;;5.38;3.95;;;;;;;20.10;93.39;95495.19;5047988;28;20060;-54
2023/03/24 06:23:29;;;;;;;7.82;4.40;;;;;;;19.85;97.79;95489.94;5048191;28;20068;-51
2023/03/24 06:26:00;;;;;;;6.82;3.80;;;;;;;19.73;98.99;95487.22;5047988;28;20108;-50
2023/03/24 06:28:29;;;;;;;12.75;4.47;;;;;;;19.60;100.00;95479.34;5047464;28;20080;-49
2023/03/24 06:30:58;;;;;;;7.25;3.90;;;;;;;19.54;100.00;95472.22;5045072;28;20083;-52
2023/03/24 06:33:26;;;;;;;6.28;3.95;;;;;;;19.48;100.00;95471.28;5046296;28;20603;-48
2023/03/24 06:35:54;;;;;;;9.00;4.03;;;;;;;19.36;100.00;95462.34;5044956;28;20064;-50
2023/03/24 06:38:23;;;;;;;8.48;4.25;;;;;;;19.36;100.00;95460.50;5046559;28;20129;-53
2023/03/24 06:40:51;;;;;;;5.55;4.00;;;;;;;19.50;100.00;95446.97;5048332;28;20079;-54
2023/03/24 06:43:21;;;;;;;6.88;4.25;;;;;;;19.47;100.00;95450.91;5047275;28;20076;-53
2023/03/24 06:45:49;;;;;;;8.17;4.20;;;;;;;19.37;100.00;95440.75;5048088;28;20091;-55
2023/03/24 06:48:17;;;;;;;7.00;4.40;;;;;;;19.53;100.00;95451.88;5048073;28;20316;-54
2023/03/24 06:50:46;;;;;;;5.38;4.30;;;;;;;19.67;100.00;95443.47;5048399;28;20075;-51
2023/03/24 06:53:14;;;;;;;6.28;3.95;;;;;;;19.76;100.00;95435.94;5047951;28;20067;-50
2023/03/24 06:55:42;;;;;;;6.55;4.10;;;;;;;19.84;100.00;95440.97;5048013;28;20072;-49
2023/03/24 06:58:13;;;;;;;6.15;4.10;;;;;;;19.93;100.00;95449.50;5047830;28;20080;-53
2023/03/24 07:00:43;;;;;;;;;;;;;;;19.98;100.00;95446.94;5049320;28;20073;-52
2023/03/24 07:03:13;;;;;;;7.87;4.30;;;;;;;20.11;100.00;95457.47;5047609;28;19998;-50
2023/03/24 07:05:43;;;;;;;7.18;4.78;;;;;;;20.14;100.00;95465.03;5048016;28;20490;-53
2023/03/24 07:08:12;;;;;;;5.15;3.95;;;;;;;20.17;100.00;95462.97;5046418;28;20075;-50
2023/03/24 07:10:43;;;;;;;6.07;4.00;;;;;;;20.26;100.00;95466.91;5052647;28;20454;-55
2023/03/24 07:13:12;;;;;;;7.05;4.10;;;;;;;20.34;99.67;95455.91;5047456;28;20068;-54
2023/03/24 07:15:40;;;;;;;8.38;4.18;;;;;;;20.43;99.78;95467.88;5047631;28;20061;-52
2023/03/24 07:18:10;;;;;;;7.65;4.03;;;;;;;20.54;98.27;95468.97;5048089;28;20338;-48
2023/03/24 07:20:38;;;;;;;5.47;3.88;;;;;;;20.59;95.40;95472.59;5049531;28;20475;-52
2023/03/24 07:23:07;;;;;;;6.53;3.90;;;;;;;20.63;95.48;95468.41;5051196;28;20084;-54
2023/03/24 07:25:35;;;;;;;6.30;4.43;;;;;;;20.63;97.17;95472.94;5050188;28;20073;-57
2023/03/24 07:28:04;;;;;;;6.13;4.15;;;;;;;20.64;98.04;95490.66;5049380;28;20072;-53
2023/03/24 07:30:34;;;;;;;5.63;3.80;;;;;;;20.60;100.00;95498.31;5043736;28;20145;-56
2023/03/24 07:33:10;;;;;;;7.75;4.43;;;;;;;20.68;100.00;95493.69;5049347;28;20080;-51
2023/03/24 07:35:39;;;;;;;6.80;3.67;;;;;;;20.72;100.00;95492.19;5056915;28;20068;-50
2023/03/24 07:38:08;;;;;;;8.38;4.53;;;;;;;20.68;100.00;95509.75;5051196;28;20080;-52
2023/03/24 07:40:37;;;;;;;7.53;4.10;;;;;;;20.66;100.00;95518.03;5049973;28;20813;-51
2023/03/24 07:43:06;;;;;;;9.18;4.18;;;;;;;20.63;100.00;95516.63;5049572;28;21141;-55
2023/03/24 07:45:34;;;;;;;6.82;4.55;;;;;;;20.53;100.00;95537.78;5044105;28;20073;-56
2023/03/24 07:48:03;;;;;;;9.15;4.80;;;;;;;20.46;100.00;95546.94;5049557;28;20080;-53
2023/03/24 07:50:33;;;;;;;6.32;3.85;;;;;;;20.46;100.00;95566.50;5050118;28;20061;-53
2023/03/24 07:53:01;;;;;;;6.00;3.65;;;;;;;19.83;100.00;95583.00;5050296;28;20077;-55
2023/03/24 07:55:29;;;;;;;6.75;4.03;;;;;;;19.76;100.00;95588.44;5050710;28;20087;-52
2023/03/24 07:57:57;;;;;;;8.77;4.28;;;;;;;20.22;100.00;95567.47;5051166;28;20084;-50
2023/03/24 08:00:27;;;;;;;5.95;4.15;;;;;;;19.51;100.00;95588.47;5050931;28;20099;-52
2023/03/24 08:02:56;;;;;;;6.53;4.30;;;;;;;19.93;100.00;95577.94;5046781;28;20080;-48
2023/03/24 08:05:26;;;;;;;8.10;4.38;;;;;;;20.18;100.00;95567.13;5049463;28;20448;-58
2023/03/24 08:07:57;;;;;;;8.50;4.80;;;;;;;20.25;100.00;95561.69;5054682;28;20071;-51
2023/03/24 08:10:27;;;;;;;8.43;4.57;;;;;;;20.32;100.00;95568.56;5048612;28;20490;-54
2023/03/24 08:12:56;;;;;;;8.18;4.47;;;;;;;20.29;100.00;95571.69;5050648;28;20600;-51
2023/03/24 08:15:26;;;;;;;8.15;4.90;;;;;;;20.34;100.00;95576.38;5048884;28;20064;-48
2023/03/24 08:17:55;;;;;;;7.60;4.90;;;;;;;20.45;100.00;95577.47;5050986;28;20072;-48
2023/03/24 08:20:25;;;;;;;6.68;4.45;;;;;;;20.21;100.00;95588.09;5050082;28;20079;-55
2023/03/24 08:22:55;;;;;;;;;;;;;;;20.28;100.00;95575.44;5051338;28;20076;-50
2023/03/24 08:25:25;;;;;;;7.95;4.15;;;;;;;20.45;100.00;95585.50;5049243;28;19960;-49
2023/03/24 08:27:53;;;;;;;8.15;4.50;;;;;;;20.49;100.00;95586.66;5050839;28;20451;-49
2023/03/24 08:30:23;;;;;;;7.53;4.80;;;;;;;20.52;100.00;95586.25;5046631;28;20072;-54
2023/03/24 08:32:53;;;;;;;8.53;4.23;;;;;;;20.21;100.00;95584.59;5049981;28;20076;-53
2023/03/24 08:35:24;;;;;;;7.53;4.03;;;;;;;20.34;100.00;95582.56;5044689;28;20522;-52
2023/03/24 08:37:52;;;;;;;6.20;3.60;;;;;;;20.21;100.00;95568.53;5050602;28;21042;-53
2023/03/24 08:40:23;;;;;;;6.40;3.25;;;;;;;20.13;100.00;95573.16;5044089;28;20088;-54
2023/03/24 08:42:53;;;;;;;5.13;3.20;;;;;;;19.76;100.00;95584.94;5050440;28;20068;-55
2023/03/24 08:45:26;;;;;;;5.88;3.13;;;;;;;19.71;100.00;95587.47;5043384;28;20057;-51
2023/03/24 08:47:55;;;;;;;6.68;3.30;;;;;;;19.92;100.00;95597.69;5049491;28;20152;-54
2023/03/24 08:50:26;;;;;;;4.70;3.10;;;;;;;19.78;100.00;95601.56;5050054;28;20092;-49
2023/03/24 08:52:56;;;;;;;6.05;3.40;;;;;;;19.79;100.00;95608.59;5049163;28;20069;-50
2023/03/24 08:55:25;;;;;;;6.85;3.85;;;;;;;19.86;100.00;95609.31;5038371;28;20077;-49
2023/03/24 08:57:54;;;;;;;6.90;3.60;;;;;;;19.97;100.00;95608.56;5049447;28;20466;-50
2023/03/24 09:00:24;;;;;;;6.28;4.00;;;;;;;19.78;100.00;95613.09;5048615;28;20091;-47
2023/03/24 09:02:54;;;;;;;5.40;3.77;;;;;;;19.96;100.00;95614.97;5043707;28;20569;-52
2023/03/24 09:05:24;;;;;;;6.13;4.10;;;;;;;20.13;100.00;95613.31;5047492;28;20080;-54
2023/03/24 09:08:08;;;;;;;6.85;3.95;;;;;;;20.20;100.00;95612.38;5042983;28;20073;-53
2023/03/24 09:10:39;;;;;;;6.75;4.38;;;;;;;20.30;100.00;95615.34;5048414;28;20084;-52
2023/03/24 09:13:07;;;;;;;7.63;4.20;;;;;;;20.45;100.00;95623.00;5045371;28;20552;-51
2023/03/24 09:15:36;;;;;;;8.02;4.20;;;;;;;20.56;100.00;95617.69;5047371;28;20079;-51
2023/03/24 09:18:05;;;;;;;6.22;3.95;;;;;;;20.73;100.00;95617.06;5045355;28;20073;-51
2023/03/24 09:20:35;;;;;;;6.32;3.67;;;;;;;20.89;100.00;95610.22;5048687;28;20065;-54
2023/03/24 09:23:03;;;;;;;7.75;4.20;;;;;;;21.01;100.00;95613.75;5044226;28;20483;-54
2023/03/24 09:25:31;;;;;;;5.40;3.83;;;;;;;20.93;100.00;95614.91;5045923;28;20061;-50
2023/03/24 09:28:02;;;;;;;7.47;3.95;;;;;;;21.05;100.00;95620.25;5048930;28;20068;-52
2023/03/24 09:30:30;;;;;;;5.35;3.78;;;;;;;20.80;100.00;95631.19;5048948;28;20079;-50
2023/03/24 09:33:01;;;;;;;6.47;3.97;;;;;;;21.01;100.00;95622.59;5050151;28;20065;-57
2023/03/24 09:35:30;;;;;;;6.10;3.88;;;;;;;20.89;100.00;95624.44;5042708;28;20080;-55
2023/03/24 09:37:58;;;;;;;6.25;3.70;;;;;;;20.69;100.00;95632.78;5046587;28;20061;-50
2023/03/24 09:40:28;;;;;;;7.50;4.00;;;;;;;20.74;100.00;95632.88;5045808;28;20088;-50
2023/03/24 09:43:02;;;;;;;5.38;2.40;;;;;;;19.63;100.00;95640.22;5044437;28;20103;-54
2023/03/24 09:45:37;;;;;;;4.00;2.80;;;;;;;19.78;100.00;95639.84;5040896;28;20076;-52
2023/03/24 09:48:08;;;;;;;3.67;2.33;;;;;;;19.21;100.00;95621.25;5049052;28;20565;-53
2023/03/24 09:50:40;;;;;;;4.53;2.55;;;;;;;19.23;100.00;95653.09;5043849;28;20075;-54
2023/03/24 09:53:15;;;;;;;4.28;2.70;;;;;;;19.20;100.00;95653.53;5045488;28;20111;-51
2023/03/24 09:55:44;;;;;;;4.57;2.75;;;;;;;19.15;100.00;95661.41;5047724;28;20061;-53
2023/03/24 09:58:14;;;;;;;2.88;1.70;;;;;;;19.10;100.00;95654.03;5048631;28;20481;-54
2023/03/24 10:00:43;;;;;;;4.33;2.13;;;;;;;19.15;100.00;95669.41;5046576;28;20084;-51
2023/03/24 10:03:15;;;;;;;5.18;2.47;;;;;;;19.09;100.00;95676.44;5046305;28;20077;-50
2023/03/24 10:05:46;;;;;;;3.95;2.55;;;;;;;19.15;100.00;95662.22;5047461;28;20470;-49
2023/03/24 10:08:17;;;;;;;3.75;2.33;;;;;;;19.11;100.00;95665.53;5043592;28;20056;-47
2023/03/24 10:10:48;;;;;;;;;;;;;;;19.14;100.00;95665.94;5048744;28;20076;-50
2023/03/24 10:13:21;;;;;;;2.90;1.73;;;;;;;18.82;100.00;95677.66;5047234;28;20061;-53
2023/03/24 10:16:03;;;;;;;3.30;1.65;;;;;;;18.85;100.00;95682.56;5045113;28;20073;-52
2023/03/24 10:18:38;;;;;;;4.00;2.08;;;;;;;18.88;100.00;95676.78;5046133;28;20083;-53
2023/03/24 10:21:14;;;;;;;2.83;1.48;;;;;;;18.77;100.00;95666.81;5042082;28;20076;-51
2023/03/24 10:23:48;;;;;;;3.90;2.20;;;;;;;19.11;100.00;95673.56;5048251;28;20077;-50
2023/03/24 10:26:29;;;;;;;3.22;2.03;;;;;;;19.20;100.00;95665.06;5042141;28;20079;-49
2023/03/24 10:29:09;;;;;;;4.03;2.38;;;;;;;18.92;100.00;95664.63;5048732;28;20118;-52
2023/03/24 10:31:38;;;;;;;2.10;1.60;;;;;;;18.91;100.00;95682.53;5044787;28;20068;-51
2023/03/24 10:34:10;;;;;;;3.28;1.90;;;;;;;18.92;100.00;95681.47;5047129;28;20060;-50
2023/03/24 10:36:39;;;;;;;4.55;2.38;;;;;;;18.95;100.00;95667.69;5042672;28;20061;-50
2023/03/24 10:39:11;;;;;;;3.92;2.58;;;;;;;19.19;100.00;95683.97;5048081;28;20069;-51
2023/03/24 10:41:50;;;;;;;3.20;2.17;;;;;;;19.33;100.00;95682.81;5045851;28;20079;-46
2023/03/24 10:44:21;;;;;;;5.00;2.13;;;;;;;19.26;100.00;95683.91;5045978;28;20088;-51
2023/03/24 10:46:49;;;;;;;;;;;;;;;19.61;100.00;95687.75;5045750;28;20093;-55
2023/03/24 10:49:19;;;;;;;3.38;1.98;;;;;;;19.33;100.00;95684.69;5048239;28;19974;-52
2023/03/24 10:51:49;;;;;;;2.85;1.88;;;;;;;19.33;100.00;95690.84;5048215;28;20068;-50
2023/03/24 10:54:19;;;;;;;4.53;2.63;;;;;;;19.68;100.00;95685.84;5047604;28;20096;-51
2023/03/24 10:56:49;;;;;;;;;;;;;;;19.54;100.00;95686.16;5053080;28;20534;-49
2023/03/24 10:59:26;;;;;;;4.30;2.20;;;;;;;19.89;100.00;95675.78;5055281;28;20354;-53
2023/03/24 11:02:02;;;;;;;5.22;2.38;;;;;;;20.08;100.00;95669.38;5054774;28;20533;-49
2023/03/24 11:04:32;;;;;;;3.42;2.03;;;;;;;19.45;100.00;95667.72;5050383;28;20493;-54
2023/03/24 11:07:06;;;;;;;2.22;1.80;;;;;;;19.30;100.00;95677.09;5053689;28;20465;-49
2023/03/24 11:09:41;;;;;;;3.20;2.00;;;;;;;19.72;100.00;95651.44;5054490;28;20064;-51
2023/03/24 11:12:22;;;;;;;3.60;1.88;;;;;;;19.85;100.00;95656.63;5047837;28;20056;-57
2023/03/24 11:14:59;;;;;;;4.97;2.28;;;;;;;19.91;100.00;95662.97;5053198;28;20099;-49
2023/03/24 11:17:45;;;;;;;2.40;1.40;;;;;;;20.02;100.00;95661.41;5050501;28;20068;-53
2023/03/24 11:20:19;;;;;;;3.45;2.00;;;;;;;20.32;100.00;95661.47;5054542;28;20076;-54
2023/03/24 11:22:56;;;;;;;2.45;1.60;;;;;;;20.13;100.00;95680.22;5052481;28;20111;-54
2023/03/24 11:25:29;;;;;;;2.40;1.27;;;;;;;20.00;100.00;95663.50;5053870;28;20084;-52
2023/03/24 11:28:02;;;;;;;3.13;2.00;;;;;;;20.54;100.00;95654.63;5052696;28;20445;-52
2023/03/24 11:30:37;;;;;;;2.05;1.30;;;;;;;20.63;100.00;95658.59;5053566;28;20499;-51
2023/03/24 11:33:05;;;;;;;1.88;1.05;;;;;;;20.26;100.00;95657.00;5053511;28;20092;-51
2023/03/24 11:35:34;;;;;;;2.10;0.80;;;;;;;20.27;100.00;95640.72;5050789;28;20069;-55
2023/03/24 11:38:16;;;;;;;1.13;0.70;;;;;;;20.78;93.85;95620.66;5052560;28;20583;-52
2023/03/24 11:40:57;;;;;;;1.60;0.80;;;;;;;20.92;90.36;95607.06;5049958;28;20077;-50
2023/03/24 11:43:27;;;;;;;1.25;0.80;;;;;;;20.87;82.67;95597.03;5053140;28;20073;-49
2023/03/24 11:45:59;;;;;;;0.68;0.57;;;;;;;21.67;77.51;95583.09;5054248;28;20067;-53
2023/03/24 11:48:34;;;;;;;1.63;0.50;;;;;;;21.90;76.57;95574.19;5048286;28;20099;-50
2023/03/24 11:51:04;;;;;;;1.80;0.70;;;;;;;22.41;75.35;95561.78;5054287;28;20063;-52
2023/03/24 11:53:40;;;;;;;1.48;0.77;;;;;;;23.14;68.58;95549.31;5053766;28;20069;-53